createdAt,value
2023-04-15T00:01:06.270Z,99675.19
2023-04-15T00:03:34.639Z,99675.94
2023-04-15T00:06:01.692Z,99682.41
2023-04-15T00:08:28.866Z,99677.41
2023-04-15T00:10:55.886Z,99676.50
2023-04-15T00:13:22.486Z,99675.38
2023-04-15T00:15:49.239Z,99673.84
2023-04-15T00:18:17.391Z,99668.06
2023-04-15T00:20:43.962Z,99668.16
2023-04-15T00:23:10.929Z,99663.75
2023-04-15T00:25:37.663Z,99667.19
2023-04-15T00:28:04.345Z,99657.84
2023-04-15T00:30:31.499Z,99655.59
2023-04-15T00:32:58.258Z,99652.19
2023-04-15T00:35:25.506Z,99656.63
2023-04-15T00:37:52.083Z,99656.69
2023-04-15T00:40:22.005Z,99648.53
2023-04-15T00:42:48.856Z,99650.44
2023-04-15T00:45:15.755Z,99650.22
2023-04-15T00:47:45.682Z,99649.25
2023-04-15T00:50:12.980Z,99641.75
2023-04-15T00:52:41.126Z,99646.53
2023-04-15T00:55:09.061Z,99646.72
2023-04-15T00:57:36.701Z,99645.59
2023-04-15T01:00:05.987Z,99646.31
2023-04-15T01:02:33.324Z,99647.47
2023-04-15T01:05:00.502Z,99647.25
2023-04-15T01:07:27.491Z,99652.03
2023-04-15T01:09:54.222Z,99647.28
2023-04-15T01:12:21.212Z,99643.13
2023-04-15T01:14:50.444Z,99641.88
2023-04-15T01:17:18.117Z,99643.34
2023-04-15T01:19:44.699Z,99645.91
2023-04-15T01:22:12.932Z,99641.88
2023-04-15T01:24:39.871Z,99649.44
2023-04-15T01:27:06.582Z,99649.34
2023-04-15T01:29:38.325Z,99657.94
2023-04-15T01:32:05.678Z,99651.72
2023-04-15T01:34:51.421Z,99656.03
2023-04-15T01:37:38.285Z,99652.34
2023-04-15T01:40:05.374Z,99654.00
2023-04-15T01:42:33.760Z,99649.34
2023-04-15T01:45:02.070Z,99657.19
2023-04-15T01:47:30.424Z,99645.81
2023-04-15T01:49:58.272Z,99648.94
2023-04-15T01:52:28.842Z,99649.47
2023-04-15T01:54:56.581Z,99642.63
2023-04-15T01:57:24.313Z,99640.47
2023-04-15T01:59:52.331Z,99643.13
2023-04-15T02:02:20.423Z,99638.16
2023-04-15T02:04:48.504Z,99644.50
2023-04-15T02:07:16.488Z,99645.53
2023-04-15T02:09:46.207Z,99651.03
2023-04-15T02:12:14.031Z,99642.97
2023-04-15T02:14:43.699Z,99652.66
2023-04-15T02:17:11.961Z,99648.53
2023-04-15T02:19:40.510Z,99653.06
2023-04-15T02:22:09.299Z,99656.63
2023-04-15T02:24:37.067Z,99648.53
2023-04-15T02:27:04.780Z,99654.75
2023-04-15T02:29:33.106Z,99652.88
2023-04-15T02:32:01.804Z,99646.56
2023-04-15T02:34:29.672Z,99646.22
2023-04-15T02:36:58.001Z,99647.34
2023-04-15T02:39:27.538Z,99651.63
2023-04-15T02:41:56.845Z,99654.25
2023-04-15T02:44:25.822Z,99652.31
2023-04-15T02:46:54.971Z,99645.03
2023-04-15T02:49:22.960Z,99652.63
2023-04-15T02:51:51.512Z,99648.56
2023-04-15T02:54:20.844Z,99661.94
2023-04-15T02:56:48.953Z,99659.28
2023-04-15T02:59:16.769Z,99657.84
2023-04-15T03:01:45.570Z,99651.31
2023-04-15T03:04:14.261Z,99658.03
2023-04-15T03:06:42.575Z,99655.31
2023-04-15T03:09:10.416Z,99661.78
2023-04-15T03:11:41.095Z,99659.22
2023-04-15T03:14:09.345Z,99657.78
2023-04-15T03:16:40.030Z,99657.09
2023-04-15T03:19:08.098Z,99656.50
2023-04-15T03:21:36.106Z,99654.53
2023-04-15T03:24:03.869Z,99653.72
2023-04-15T03:26:32.401Z,99649.78
2023-04-15T03:29:01.231Z,99644.50
2023-04-15T03:31:29.329Z,99653.34
2023-04-15T03:33:57.339Z,99645.38
2023-04-15T03:36:26.057Z,99649.25
2023-04-15T03:38:54.018Z,99648.75
2023-04-15T03:41:24.005Z,99644.16
2023-04-15T03:43:52.243Z,99642.53
2023-04-15T03:46:20.243Z,99641.19
2023-04-15T03:48:48.609Z,99648.31
2023-04-15T03:51:16.565Z,99644.94
2023-04-15T03:53:44.329Z,99641.09
2023-04-15T03:56:12.294Z,99646.28
2023-04-15T03:58:40.469Z,99640.41
2023-04-15T04:01:11.283Z,99638.03
2023-04-15T04:03:40.918Z,99634.69
2023-04-15T04:06:09.281Z,99643.88
2023-04-15T04:08:37.777Z,99642.00
2023-04-15T04:11:05.792Z,99643.84
2023-04-15T04:13:34.813Z,99633.44
2023-04-15T04:16:04.766Z,99642.53
2023-04-15T04:18:33.537Z,99645.34
2023-04-15T04:21:01.724Z,99638.19
2023-04-15T04:23:29.622Z,99645.78
2023-04-15T04:25:58.708Z,99638.03
2023-04-15T04:28:27.043Z,99641.94
2023-04-15T04:30:54.904Z,99642.72
2023-04-15T04:33:23.057Z,99646.47
2023-04-15T04:35:50.891Z,99642.59
2023-04-15T04:38:18.848Z,99644.81
2023-04-15T04:40:46.712Z,99642.22
2023-04-15T04:43:15.935Z,99644.81
2023-04-15T04:45:43.975Z,99648.81
2023-04-15T04:48:11.803Z,99656.56
2023-04-15T04:50:40.075Z,99652.50
2023-04-15T04:53:08.097Z,99651.53
2023-04-15T04:55:37.081Z,99655.00
2023-04-15T04:58:04.992Z,99653.94
2023-04-15T05:00:33.005Z,99654.53
2023-04-15T05:03:01.172Z,99648.59
2023-04-15T05:05:28.996Z,99658.63
2023-04-15T05:07:56.849Z,99669.44
2023-04-15T05:10:25.003Z,99667.31
2023-04-15T05:12:52.844Z,99662.09
2023-04-15T05:15:20.672Z,99663.66
2023-04-15T05:17:48.956Z,99670.38
2023-04-15T05:20:17.095Z,99669.78
2023-04-15T05:22:45.317Z,99675.94
2023-04-15T05:25:13.811Z,99679.34
2023-04-15T05:27:42.082Z,99673.84
2023-04-15T05:30:12.097Z,99683.72
2023-04-15T05:32:41.892Z,99678.50
2023-04-15T05:35:09.931Z,99683.09
2023-04-15T05:37:37.704Z,99687.19
2023-04-15T05:40:06.241Z,99688.00
2023-04-15T05:42:35.256Z,99693.25
2023-04-15T05:45:05.524Z,99686.50
2023-04-15T05:47:33.492Z,99687.75
2023-04-15T05:50:01.766Z,99687.47
2023-04-15T05:52:30.046Z,99693.03
2023-04-15T05:54:57.999Z,99694.44
2023-04-15T05:57:26.224Z,99689.44
2023-04-15T05:59:54.493Z,99695.56
2023-04-15T06:02:22.418Z,99697.25
2023-04-15T06:04:50.460Z,99699.78
2023-04-15T06:07:18.850Z,99695.69
2023-04-15T06:09:47.385Z,99694.00
2023-04-15T06:12:17.011Z,99692.38
2023-04-15T06:14:44.729Z,99694.38
2023-04-15T06:17:14.892Z,99696.88
2023-04-15T06:19:42.808Z,99705.44
2023-04-15T06:22:10.781Z,99708.63
2023-04-15T06:24:38.602Z,99700.81
2023-04-15T06:27:06.534Z,99709.56
2023-04-15T06:29:34.341Z,99709.47
2023-04-15T06:32:03.832Z,99706.69
2023-04-15T06:34:31.795Z,99706.41
2023-04-15T06:37:01.428Z,99714.31
2023-04-15T06:39:30.523Z,99704.28
2023-04-15T06:41:58.279Z,99710.22
2023-04-15T06:44:26.202Z,99717.66
2023-04-15T06:46:54.145Z,99716.09
2023-04-15T06:49:22.065Z,99719.53
2023-04-15T06:51:51.514Z,99719.09
2023-04-15T06:54:19.543Z,99725.03
2023-04-15T06:56:48.955Z,99721.06
2023-04-15T06:59:17.083Z,99730.63
2023-04-15T07:01:45.010Z,99723.75
2023-04-15T07:04:13.577Z,99726.91
2023-04-15T07:06:42.041Z,99731.44
2023-04-15T07:09:10.253Z,99730.03
2023-04-15T07:11:39.609Z,99729.94
2023-04-15T07:14:07.379Z,99731.75
2023-04-15T07:16:35.560Z,99733.50
2023-04-15T07:19:03.990Z,99735.41
2023-04-15T07:21:33.259Z,99732.69
2023-04-15T07:24:01.417Z,99736.31
2023-04-15T07:26:31.330Z,99732.19
2023-04-15T07:29:01.498Z,99730.25
2023-04-15T07:31:29.585Z,99734.69
2023-04-15T07:33:58.622Z,99739.31
2023-04-15T07:36:27.150Z,99733.50
2023-04-15T07:38:55.622Z,99727.16
2023-04-15T07:41:23.889Z,99734.13
2023-04-15T07:43:51.832Z,99736.72
2023-04-15T07:46:19.886Z,99733.28
2023-04-15T07:48:47.789Z,99731.91
2023-04-15T07:51:15.850Z,99740.19
2023-04-15T07:53:44.903Z,99741.31
2023-04-15T07:56:13.170Z,99734.19
2023-04-15T07:58:41.719Z,99736.78
2023-04-15T08:01:09.638Z,99731.19
2023-04-15T08:03:37.837Z,99739.50
2023-04-15T08:06:05.827Z,99737.13
2023-04-15T08:08:33.612Z,99743.75
2023-04-15T08:11:01.426Z,99747.97
2023-04-15T08:13:29.512Z,99744.84
2023-04-15T08:16:24.808Z,99742.50
2023-04-15T08:18:55.858Z,99746.13
2023-04-15T08:21:24.554Z,99740.41
2023-04-15T08:23:53.609Z,99741.94
2023-04-15T08:26:21.911Z,99734.72
2023-04-15T08:28:49.814Z,99739.66
2023-04-15T08:31:18.993Z,99749.53
2023-04-15T08:33:46.916Z,99739.84
2023-04-15T08:36:14.896Z,99736.78
2023-04-15T08:38:44.818Z,99747.06
2023-04-15T08:41:18.197Z,99744.84
2023-04-15T08:44:02.027Z,99741.41
2023-04-15T08:46:37.579Z,99739.34
2023-04-15T08:49:09.822Z,99746.81
2023-04-15T08:51:43.172Z,99739.16
2023-04-15T08:54:11.210Z,99744.84
2023-04-15T08:56:39.577Z,99738.16
2023-04-15T08:59:07.627Z,99740.31
2023-04-15T09:01:37.461Z,99744.03
2023-04-15T09:04:08.339Z,99746.88
2023-04-15T09:06:36.351Z,99756.06
2023-04-15T09:09:04.212Z,99747.38
2023-04-15T09:11:32.149Z,99753.59
2023-04-15T09:13:59.906Z,99756.25
2023-04-15T09:16:28.485Z,99759.28
2023-04-15T09:18:57.930Z,99750.94
2023-04-15T09:21:26.152Z,99746.44
2023-04-15T09:24:02.526Z,99757.09
2023-04-15T09:26:32.545Z,99760.91
2023-04-15T09:29:09.434Z,99757.19
2023-04-15T09:31:37.866Z,99766.28
2023-04-15T09:34:06.980Z,99770.50
2023-04-15T09:36:49.163Z,99780.72
2023-04-15T09:39:18.328Z,99774.28
2023-04-15T09:41:46.424Z,99781.47
2023-04-15T09:44:28.169Z,99785.22
2023-04-15T09:46:55.948Z,99789.13
2023-04-15T09:49:23.819Z,99790.66
2023-04-15T09:52:05.152Z,99786.09
2023-04-15T09:54:36.608Z,99792.88
2023-04-15T09:57:11.002Z,99788.69
2023-04-15T09:59:38.834Z,99793.19
2023-04-15T10:02:09.506Z,99802.69
2023-04-15T10:04:40.619Z,99798.16
2023-04-15T10:07:12.553Z,99803.34
2023-04-15T10:09:41.463Z,99807.97
2023-04-15T10:12:09.412Z,99808.47
2023-04-15T10:14:38.866Z,99814.16
2023-04-15T10:17:11.485Z,99818.03
2023-04-15T10:19:40.513Z,99818.78
2023-04-15T10:22:09.497Z,99821.81
2023-04-15T10:24:39.034Z,99822.19
2023-04-15T10:27:07.500Z,99819.16
2023-04-15T10:29:36.401Z,99816.50
2023-04-15T10:32:04.774Z,99819.84
2023-04-15T10:34:32.812Z,99819.72
2023-04-15T10:37:04.703Z,99827.38
2023-04-15T10:39:42.058Z,99829.63
2023-04-15T10:42:13.286Z,99838.50
2023-04-15T10:44:55.826Z,99836.31
2023-04-15T10:47:23.973Z,99839.00
2023-04-15T10:49:59.244Z,99841.03
2023-04-15T10:52:29.406Z,99835.84
2023-04-15T10:55:20.754Z,99840.78
2023-04-15T10:57:58.084Z,99837.69
2023-04-15T11:00:28.471Z,99835.44
2023-04-15T11:02:57.605Z,99840.81
2023-04-15T11:05:49.343Z,99843.16
2023-04-15T11:08:17.176Z,99839.72
2023-04-15T11:10:47.072Z,99846.19
2023-04-15T11:13:17.362Z,99841.56
2023-04-15T11:15:46.443Z,99852.25
2023-04-15T11:18:28.495Z,99854.16
2023-04-15T11:20:59.658Z,99851.50
2023-04-15T11:23:48.451Z,99859.91
2023-04-15T11:26:16.355Z,99868.25
2023-04-15T11:28:45.959Z,99864.88
2023-04-15T11:31:16.853Z,99876.59
2023-04-15T11:33:55.775Z,99868.59
2023-04-15T11:36:29.498Z,99876.97
2023-04-15T11:38:59.931Z,99883.09
2023-04-15T11:41:27.979Z,99881.16
2023-04-15T11:43:56.126Z,99886.47
2023-04-15T11:46:31.378Z,99896.66
2023-04-15T11:49:00.333Z,99893.22
2023-04-15T11:51:32.594Z,99888.66
2023-04-15T11:53:59.170Z,99894.81
2023-04-15T11:56:29.169Z,99899.31
2023-04-15T11:58:58.740Z,99902.81
2023-04-15T12:01:52.577Z,99908.09
2023-04-15T12:04:24.892Z,99911.44
2023-04-15T12:06:52.458Z,99913.34
2023-04-15T12:09:20.550Z,99921.00
2023-04-15T12:11:53.975Z,99926.34
2023-04-15T12:14:28.896Z,99922.25
2023-04-15T12:17:00.725Z,99934.25
2023-04-15T12:19:35.744Z,99929.06
2023-04-15T12:22:04.459Z,99933.22
2023-04-15T12:24:35.936Z,99941.66
2023-04-15T12:27:13.384Z,99941.28
2023-04-15T12:29:41.848Z,99950.06
2023-04-15T12:32:16.891Z,99956.25
2023-04-15T12:34:49.994Z,99955.56
2023-04-15T12:37:20.380Z,99961.69
2023-04-15T12:39:51.848Z,99956.38
2023-04-15T12:42:18.820Z,99961.63
2023-04-15T12:44:46.957Z,99963.13
2023-04-15T12:47:14.175Z,99958.91
2023-04-15T12:49:41.246Z,99970.31
2023-04-15T12:52:08.349Z,99967.09
2023-04-15T12:54:36.068Z,99979.28
2023-04-15T12:57:05.537Z,99982.69
2023-04-15T12:59:33.532Z,99983.28
2023-04-15T13:02:01.195Z,99975.28
2023-04-15T13:04:30.797Z,99978.13
2023-04-15T13:06:57.984Z,99980.94
2023-04-15T13:09:26.377Z,99980.13
2023-04-15T13:11:54.734Z,99988.31
2023-04-15T13:14:22.704Z,99985.72
2023-04-15T13:16:49.413Z,99984.06
2023-04-15T13:19:16.054Z,99993.25
2023-04-15T13:21:42.861Z,99991.81
2023-04-15T13:24:09.903Z,99990.47
2023-04-15T13:26:37.456Z,99988.97
2023-04-15T13:29:04.044Z,99997.19
2023-04-15T13:31:30.634Z,99992.06
2023-04-15T13:33:57.301Z,99988.25
2023-04-15T13:36:24.118Z,99997.31
2023-04-15T13:38:51.546Z,100003.53
2023-04-15T13:41:18.551Z,99998.56
2023-04-15T13:43:45.146Z,100005.03
2023-04-15T13:46:12.081Z,100003.06
2023-04-15T13:48:39.287Z,100005.06
2023-04-15T13:51:06.075Z,100005.50
2023-04-15T13:53:38.555Z,100008.03
2023-04-15T13:56:09.584Z,100013.41
2023-04-15T13:58:38.494Z,100008.38
2023-04-15T14:01:07.086Z,100005.66
2023-04-15T14:03:38.660Z,100016.34
2023-04-15T14:06:07.170Z,100011.81
2023-04-15T14:08:33.842Z,100020.81
2023-04-15T14:11:00.577Z,100025.63
2023-04-15T14:13:27.188Z,100028.59
2023-04-15T14:15:54.047Z,100033.09
2023-04-15T14:18:21.451Z,100029.59
2023-04-15T14:20:48.088Z,100032.09
2023-04-15T14:23:14.824Z,100031.84
2023-04-15T14:25:41.646Z,100031.88
2023-04-15T14:28:08.311Z,100044.44
2023-04-15T14:30:35.328Z,100040.31
2023-04-15T14:33:06.352Z,100040.81
2023-04-15T14:35:32.940Z,100047.63
2023-04-15T14:37:59.558Z,100050.47
2023-04-15T14:40:27.399Z,100055.56
2023-04-15T14:42:54.158Z,100053.94
2023-04-15T14:45:20.833Z,100057.94
2023-04-15T14:47:47.580Z,100055.84
2023-04-15T14:50:14.237Z,100061.13
2023-04-15T14:52:41.135Z,100069.25
2023-04-15T14:55:11.739Z,100068.78
2023-04-15T14:57:39.148Z,100082.94
2023-04-15T15:00:07.542Z,100072.03
2023-04-15T15:02:38.899Z,100084.72
2023-04-15T15:05:06.508Z,100084.44
2023-04-15T15:07:34.212Z,100090.38
2023-04-15T15:10:00.826Z,100091.25
2023-04-15T15:12:27.572Z,100097.75
2023-04-15T15:14:55.713Z,100099.91
2023-04-15T15:17:22.816Z,100103.25
2023-04-15T15:19:49.561Z,100097.84
2023-04-15T15:22:16.310Z,100102.78
2023-04-15T15:24:43.001Z,100103.63
2023-04-15T15:27:09.997Z,100098.06
2023-04-15T15:29:38.119Z,100106.72
2023-04-15T15:32:04.932Z,100112.69
2023-04-15T15:34:31.741Z,100106.63
2023-04-15T15:36:58.272Z,100109.53
2023-04-15T15:39:25.605Z,100119.00
2023-04-15T15:41:52.717Z,100122.34
2023-04-15T15:44:19.330Z,100115.78
2023-04-15T15:46:46.249Z,100122.72
2023-04-15T15:49:13.107Z,100123.13
2023-04-15T15:51:39.681Z,100125.19
2023-04-15T15:54:06.482Z,100128.41
2023-04-15T15:56:34.483Z,100136.56
2023-04-15T15:59:01.019Z,100139.47
2023-04-15T16:01:27.721Z,100139.22
2023-04-15T16:03:54.727Z,100143.78
2023-04-15T16:06:21.486Z,100150.34
2023-04-15T16:08:48.329Z,100145.09
2023-04-15T16:11:15.005Z,100147.63
2023-04-15T16:13:42.043Z,100143.28
2023-04-15T16:16:08.711Z,100152.41
2023-04-15T16:18:35.544Z,100148.13
2023-04-15T16:21:02.356Z,100154.91
2023-04-15T16:23:29.019Z,100167.69
2023-04-15T16:25:55.796Z,100158.50
2023-04-15T16:28:26.927Z,100169.81
2023-04-15T16:30:54.676Z,100168.69
2023-04-15T16:33:21.377Z,100167.34
2023-04-15T16:35:48.149Z,100175.13
2023-04-15T16:38:14.729Z,100172.19
2023-04-15T16:40:41.343Z,100178.94
2023-04-15T16:43:11.019Z,100179.44
2023-04-15T16:45:37.828Z,100181.50
2023-04-15T16:48:05.011Z,100188.69
2023-04-15T16:50:32.004Z,100188.06
2023-04-15T16:52:58.572Z,100192.81
2023-04-15T16:55:28.501Z,100199.31
2023-04-15T16:58:03.171Z,100199.00
2023-04-15T17:00:31.721Z,100205.13
2023-04-15T17:02:59.226Z,100199.63
2023-04-15T17:05:29.291Z,100199.59
2023-04-15T17:07:55.817Z,100209.22
2023-04-15T17:10:22.711Z,100206.47
2023-04-15T17:12:52.303Z,100210.03
2023-04-15T17:15:20.253Z,100213.03
2023-04-15T17:17:53.568Z,100217.53
2023-04-15T17:20:20.678Z,100220.44
2023-04-15T17:22:49.318Z,100225.50
2023-04-15T17:25:16.213Z,100226.31
2023-04-15T17:27:46.825Z,100230.63
2023-04-15T17:30:19.512Z,100234.78
2023-04-15T17:33:54.031Z,100233.13
2023-04-15T17:36:13.091Z,100240.53
2023-04-15T17:38:59.585Z,100246.72
2023-04-15T17:41:47.166Z,100247.66
2023-04-15T17:44:33.933Z,100254.09
2023-04-15T17:47:20.598Z,100253.22
2023-04-15T17:50:07.927Z,100260.22
2023-04-15T17:52:54.509Z,100269.28
2023-04-15T17:55:41.043Z,100261.50
2023-04-15T17:58:28.284Z,100268.56
2023-04-15T18:01:14.911Z,100287.47
2023-04-15T18:04:01.479Z,100290.66
2023-04-15T18:06:48.439Z,100284.81
2023-04-15T18:09:35.333Z,100291.25
2023-04-15T18:12:22.006Z,100297.59
2023-04-15T18:15:09.817Z,100301.78
2023-04-15T18:18:00.498Z,100304.38
2023-04-15T18:20:27.851Z,100310.72
2023-04-15T18:22:54.609Z,100305.38
2023-04-15T18:25:23.625Z,100315.38
2023-04-15T18:27:50.971Z,100319.72
2023-04-15T18:30:17.487Z,100325.38
2023-04-15T18:32:45.544Z,100328.13
2023-04-15T18:35:12.202Z,100325.84
2023-04-15T18:37:38.799Z,100330.19
2023-04-15T18:40:07.220Z,100337.53
2023-04-15T18:42:33.843Z,100333.69
2023-04-15T18:45:00.626Z,100335.13
2023-04-15T18:47:27.846Z,100347.25
2023-04-15T18:49:54.534Z,100345.63
2023-04-15T18:52:21.710Z,100348.41
2023-04-15T18:54:49.007Z,100347.75
2023-04-15T18:57:16.688Z,100350.50
2023-04-15T18:59:51.602Z,100353.41
2023-04-15T19:02:19.180Z,100357.88
2023-04-15T19:04:45.771Z,100361.63
2023-04-15T19:07:12.842Z,100367.91
2023-04-15T19:09:39.485Z,100369.50
2023-04-15T19:12:06.460Z,100371.97
2023-04-15T19:14:33.436Z,100373.16
2023-04-15T19:17:00.112Z,100375.31
2023-04-15T19:19:29.379Z,100373.00
2023-04-15T19:21:58.303Z,100371.25
2023-04-15T19:24:24.866Z,100375.88
2023-04-15T19:26:51.642Z,100371.81
2023-04-15T19:29:18.891Z,100370.09
2023-04-15T19:31:45.935Z,100376.16
2023-04-15T19:34:12.489Z,100368.41
2023-04-15T19:36:39.136Z,100373.19
2023-04-15T19:39:06.372Z,100382.72
2023-04-15T19:41:33.346Z,100388.59
2023-04-15T19:44:01.071Z,100390.31
2023-04-15T19:46:27.930Z,100390.66
2023-04-15T19:48:55.285Z,100401.63
2023-04-15T19:51:22.534Z,100399.34
2023-04-15T19:53:56.447Z,100397.09
2023-04-15T19:56:24.055Z,100402.47
2023-04-15T19:58:53.114Z,100396.94
2023-04-15T20:01:20.646Z,100409.94
2023-04-15T20:03:47.500Z,100398.72
2023-04-15T20:06:15.596Z,100403.16
2023-04-15T20:08:42.272Z,100400.53
2023-04-15T20:11:09.677Z,100402.22
2023-04-15T20:13:36.806Z,100402.47
2023-04-15T20:16:04.186Z,100417.22
2023-04-15T20:18:30.996Z,100410.50
2023-04-15T20:20:57.588Z,100408.28
2023-04-15T20:23:24.504Z,100411.13
2023-04-15T20:25:51.822Z,100413.50
2023-04-15T20:28:19.231Z,100420.03
2023-04-15T20:30:47.226Z,100414.88
2023-04-15T20:33:14.296Z,100414.75
2023-04-15T20:35:41.079Z,100407.50
2023-04-15T20:38:07.864Z,100416.78
2023-04-15T20:40:34.517Z,100420.72
2023-04-15T20:43:01.201Z,100418.16
2023-04-15T20:45:27.739Z,100422.66
2023-04-15T20:47:56.346Z,100419.84
2023-04-15T20:50:22.990Z,100417.84
2023-04-15T20:52:49.516Z,100424.28
2023-04-15T20:55:17.709Z,100428.84
2023-04-15T20:57:44.197Z,100426.34
2023-04-15T21:00:11.993Z,100417.50
2023-04-15T21:02:38.695Z,100416.31
2023-04-15T21:05:05.907Z,100421.00
2023-04-15T21:07:32.600Z,100421.13
2023-04-15T21:09:59.560Z,100426.41
2023-04-15T21:12:26.521Z,100426.00
2023-04-15T21:14:53.042Z,100431.66
2023-04-15T21:17:19.623Z,100437.59
2023-04-15T21:19:46.182Z,100442.22
2023-04-15T21:22:14.427Z,100439.63
2023-04-15T21:24:41.109Z,100453.19
2023-04-15T21:27:07.880Z,100448.00
2023-04-15T21:29:34.496Z,100459.66
2023-04-15T21:32:01.285Z,100454.59
2023-04-15T21:34:28.419Z,100460.00
2023-04-15T21:36:55.104Z,100458.06
2023-04-15T21:39:21.805Z,100462.53
2023-04-15T21:41:48.664Z,100463.97
2023-04-15T21:44:16.662Z,100466.06
2023-04-15T21:46:46.148Z,100474.56
2023-04-15T21:49:13.387Z,100477.41
2023-04-15T21:51:39.997Z,100485.00
2023-04-15T21:54:06.631Z,100485.34
2023-04-15T21:56:33.545Z,100483.94
2023-04-15T21:59:00.181Z,100498.44
2023-04-15T22:01:26.931Z,100493.19
2023-04-15T22:03:53.877Z,100494.59
2023-04-15T22:06:21.014Z,100499.44
2023-04-15T22:08:56.764Z,100496.72
2023-04-15T22:11:28.371Z,100491.66
2023-04-15T22:13:56.289Z,100490.63
2023-04-15T22:16:23.233Z,100494.16
2023-04-15T22:18:49.837Z,100494.84
2023-04-15T22:21:16.626Z,100488.22
2023-04-15T22:23:47.505Z,100495.78
2023-04-15T22:26:14.366Z,100497.81
2023-04-15T22:28:41.901Z,100499.53
2023-04-15T22:31:11.890Z,100506.03
2023-04-15T22:33:39.239Z,100509.22
2023-04-15T22:36:06.146Z,100513.78
2023-04-15T22:38:32.859Z,100509.56
2023-04-15T22:41:00.474Z,100516.25
2023-04-15T22:43:27.712Z,100514.97
2023-04-15T22:45:55.312Z,100516.88
2023-04-15T22:48:22.579Z,100518.53
2023-04-15T22:50:49.463Z,100527.00
2023-04-15T22:53:18.410Z,100531.25
2023-04-15T22:55:47.525Z,100521.09
2023-04-15T22:58:15.260Z,100524.00
2023-04-15T23:00:42.187Z,100534.59
2023-04-15T23:03:09.026Z,100532.31
2023-04-15T23:05:36.075Z,100524.41
2023-04-15T23:08:04.022Z,100538.34
2023-04-15T23:10:30.936Z,100535.97
2023-04-15T23:12:57.496Z,100539.41
2023-04-15T23:15:24.199Z,100547.53
2023-04-15T23:17:50.878Z,100548.72
2023-04-15T23:20:17.686Z,100550.75
2023-04-15T23:22:44.301Z,100551.81
2023-04-15T23:25:10.884Z,100550.94
2023-04-15T23:27:37.529Z,100552.84
2023-04-15T23:30:04.590Z,100553.22
2023-04-15T23:32:31.207Z,100554.78
2023-04-15T23:34:57.821Z,100550.88
2023-04-15T23:37:24.396Z,100541.19
2023-04-15T23:39:51.039Z,100546.41
2023-04-15T23:42:17.556Z,100546.59
2023-04-15T23:44:44.889Z,100538.09
2023-04-15T23:47:11.502Z,100550.53
2023-04-15T23:49:43.199Z,100556.53
2023-04-15T23:52:09.712Z,100550.31
2023-04-15T23:54:36.197Z,100545.41
2023-04-15T23:57:03.658Z,100550.94
2023-04-15T23:59:30.230Z,100548.22
